»·PEaware :: N221XG KSMX-KONT

N221XG :: KSMX-KONT

FLIGHT INFORMATION

Flight Status: Arrived
Operator: Privately registered:
United States
More flights under this callsign
Pilot: Ryan L. (9775)
Aircraft: BEECH AIRCRAFT SUPER KING AIR 350
(B350)
More flights by this aircraft type
Origin: KSMX Santa Maria Pub/Capt Hancock
United States
Destination: KONT Ontario Intl
United States
More flights between these airports :: More routes between these airports
Route: +RZS FIM V186 ITSME V264 POM V197 PDZ
File this flight plan on PilotEdge
Remarks:
Altitude:
(Current/Filed)
9,000ft
Speed:
(Current/Filed)
280kts
Departed: 26-May-19 08:30 PM
Arrived: 26-May-19 09:21 PM
Distance/Time
Traveled:
150nm/0:51
Distance/Time
To Go:
Arrived

Flight Plot

Page will automatically refresh every two minutes.

Flight plan parsing failed; only flown route is shown


Map Options




Map Legend


Flown Route
Filed Route
Departure Airport
Arrival Airport
Navaid (VOR, NDB)
Fix

Horizontal Profiles

Position Reports

Time Latitude Longitude Heading Altitude Ground
Speed
26-May-19 20:10 34.896535 -120.445676 314 266ft 0kts
26-May-19 20:11 34.896535 -120.445676 314 266ft 0kts
26-May-19 20:12 34.896535 -120.445676 314 266ft 0kts
26-May-19 20:13 34.896535 -120.445676 314 266ft 0kts
26-May-19 20:14 34.896535 -120.445676 314 266ft 0kts
26-May-19 20:15 34.896535 -120.445676 314 266ft 0kts
26-May-19 20:16 34.896535 -120.445676 314 266ft 0kts
26-May-19 20:17 34.896535 -120.445676 314 266ft 0kts
26-May-19 20:18 34.896535 -120.445676 314 266ft 0kts
26-May-19 20:19 34.896617 -120.445787 310 266ft 0kts
26-May-19 20:20 34.896618 -120.445787 310 266ft 0kts
26-May-19 20:21 34.896618 -120.445787 310 266ft 0kts
26-May-19 20:22 34.896618 -120.445787 310 266ft 0kts
26-May-19 20:23 34.896644 -120.445824 311 266ft 0kts
26-May-19 20:24 34.895926 -120.445706 133 266ft 5kts
26-May-19 20:25 34.894547 -120.445357 175 266ft 6kts
26-May-19 20:26 34.893487 -120.445219 185 266ft 0kts
26-May-19 20:27 34.893387 -120.445232 186 266ft 1kts
26-May-19 20:28 34.893144 -120.446209 316 266ft 7kts
26-May-19 20:29 34.907818 -120.464453 313 569ft 128kts
26-May-19 20:30 34.940903 -120.462241 69 2085ft 157kts
26-May-19 20:31 34.926355 -120.409136 113 3547ft 182kts
26-May-19 20:32 34.906016 -120.351385 113 4962ft 210kts
26-May-19 20:33 34.867181 -120.295478 153 6140ft 222kts
26-May-19 20:34 34.813157 -120.259166 153 7623ft 226kts
26-May-19 20:35 34.755290 -120.215038 130 8019ft 272kts
26-May-19 20:36 34.722309 -120.137659 116 9039ft 272kts
26-May-19 20:37 34.685688 -120.052506 111 9019ft 290kts
26-May-19 20:38 34.660683 -119.958429 108 9026ft 294kts
26-May-19 20:39 34.634561 -119.863747 108 9027ft 294kts
26-May-19 20:40 34.608275 -119.769213 108 9027ft 295kts
26-May-19 20:41 34.581769 -119.674369 108 9027ft 296kts
26-May-19 20:42 34.555164 -119.579474 108 9030ft 296kts
26-May-19 20:43 34.528457 -119.484549 109 9027ft 295kts
26-May-19 20:44 34.501822 -119.390041 108 9027ft 295kts
26-May-19 20:45 34.478216 -119.306953 110 9023ft 295kts
26-May-19 20:46 34.451428 -119.212832 110 9024ft 294kts
26-May-19 20:47 34.424680 -119.118867 110 9026ft 293kts
26-May-19 20:48 34.397898 -119.025064 110 9026ft 293kts
26-May-19 20:49 34.371262 -118.932036 110 9012ft 293kts
26-May-19 20:50 34.344440 -118.838662 111 9005ft 292kts
26-May-19 20:51 34.314104 -118.747960 115 9000ft 291kts
26-May-19 20:52 34.282285 -118.657856 115 9018ft 290kts
26-May-19 20:53 34.250583 -118.568145 115 9042ft 289kts
26-May-19 20:54 34.219048 -118.478680 112 9066ft 289kts
26-May-19 20:55 34.192662 -118.389980 112 7751ft 273kts
26-May-19 20:56 34.167788 -118.309138 113 6995ft 237kts
26-May-19 20:57 34.144999 -118.235182 113 7015ft 236kts
26-May-19 20:58 34.122181 -118.160990 113 6997ft 236kts
26-May-19 20:59 34.108951 -118.083569 99 6998ft 236kts
26-May-19 21:00 34.101270 -118.004800 99 6998ft 237kts
26-May-19 21:01 34.093035 -117.925185 99 6999ft 238kts
26-May-19 21:02 34.084709 -117.845785 99 6999ft 238kts
26-May-19 21:03 34.080429 -117.766881 86 6984ft 222kts
26-May-19 21:04 34.084708 -117.699497 86 6998ft 192kts
26-May-19 21:05 34.088994 -117.635004 86 6999ft 192kts
26-May-19 21:06 34.093287 -117.570696 86 7000ft 191kts
26-May-19 21:07 34.097549 -117.506584 86 7000ft 192kts
26-May-19 21:08 34.101850 -117.441419 86 7002ft 196kts
26-May-19 21:09 34.106174 -117.375327 86 7002ft 199kts
26-May-19 21:10 34.110253 -117.308709 87 6111ft 198kts
26-May-19 21:11 34.099717 -117.253112 173 5863ft 159kts
26-May-19 21:12 34.073219 -117.286202 242 4411ft 152kts
26-May-19 21:13 34.054592 -117.330132 261 4287ft 153kts
26-May-19 21:14 34.054847 -117.378085 268 4244ft 132kts
26-May-19 21:15 34.054913 -117.420360 268 3555ft 112kts
26-May-19 21:16 34.054922 -117.456813 268 3036ft 116kts
26-May-19 21:17 34.054960 -117.496758 269 2378ft 116kts
26-May-19 21:18 34.054962 -117.534225 269 1763ft 106kts
26-May-19 21:19 34.054749 -117.567961 272 1214ft 98kts
26-May-19 21:20 34.054956 -117.594872 271 948ft 40kts
26-May-19 21:21 34.054932 -117.600465 270 948ft 12kts
26-May-19 21:22 34.053675 -117.602516 183 948ft 8kts
26-May-19 21:23 34.052081 -117.601260 164 948ft 3kts
26-May-19 21:24 34.050691 -117.601209 177 948ft 1kts
26-May-19 21:25 34.050684 -117.601209 177 948ft 0kts

Navigation Log

Ident Type
Flight plan parsing failed, navigation log unavailable